Teruhou Maru No.22 — JD3202 — position and weather

sailwx.info

Track history (hours):
 
Tides and Currents Weather Stations Pressure Air Temp Water Temp Dewpoint Dewpoint Depression Visibility Wind Speed Wind Dir Waves Ship Positions

Teruhou Maru No.22

Last reported at 2016-Feb-07 22:26 UTC. Time now 2016-Feb-11 19:06 UTC.
Position N 35°10' E 139°44'.

Length 76 m; draft 5 m.

Type: Cargo ship. MMSI: 431002552.

Date/timePositionNaut miles runAvg speedWind from/ knotsBaromVisibWave heightAir tempDewpointWater temp
2016-Feb-07 22:26N 35°10' E 139°44'1011.3
2016-Feb-07 21:33N 35°20' E 139°43'7 7.5
2016-Feb-07 20:33N 35°23' E 139°51'2 2.2
2016-Feb-07 19:33N 35°22' E 139°54'0 0.0
2016-Feb-07 18:33N 35°22' E 139°54'0 0.0
2016-Feb-07 17:27N 35°22' E 139°54'0 0.0
2016-Feb-07 16:33N 35°22' E 139°54'0 0.0
2016-Feb-07 15:33N 35°22' E 139°54'0 0.0
2016-Feb-07 14:30N 35°22' E 139°54'0 0.0
2016-Feb-07 13:33N 35°22' E 139°54'0 0.0
2016-Feb-07 12:33N 35°22' E 139°54'0 0.0
2016-Feb-07 11:33N 35°22' E 139°54'0 0.0
2016-Feb-07 10:33N 35°22' E 139°54'0 0.0
2016-Feb-07 09:33N 35°22' E 139°54'0 0.0
2016-Feb-07 08:33N 35°22' E 139°54'0 0.0
2016-Feb-07 07:33N 35°22' E 139°54'0 0.0
2016-Feb-07 06:33N 35°22' E 139°54'0 0.0
2016-Feb-07 05:33N 35°22' E 139°54'0 0.0
2016-Feb-07 04:27N 35°22' E 139°54'0 0.0
2016-Feb-07 03:33N 35°22' E 139°54'0 0.0
2016-Feb-07 02:33N 35°22' E 139°54'1 1.2
2016-Feb-07 01:29N 35°22' E 139°52'0 0.0
2016-Feb-07 00:23N 35°22' E 139°52'0 0.0
2016-Feb-06 23:32N 35°22' E 139°52'0 0.0
2016-Feb-06 22:32N 35°22' E 139°52'0 0.0
2016-Feb-06 21:32N 35°22' E 139°52'0 0.0
2016-Feb-06 20:26N 35°22' E 139°52'0 0.0
2016-Feb-06 19:29N 35°22' E 139°52'0 0.0
2016-Feb-06 18:29N 35°22' E 139°52'0 0.0
2016-Feb-06 17:32N 35°22' E 139°52'0 0.0
2016-Feb-06 16:32N 35°22' E 139°52'0 0.0
2016-Feb-06 15:29N 35°22' E 139°52'0 0.1
2016-Feb-06 14:32N 35°22' E 139°52'0 0.0
2016-Feb-06 13:32N 35°22' E 139°52'0 0.0
2016-Feb-06 12:32N 35°22' E 139°52'0 0.0
2016-Feb-06 11:30N 35°22' E 139°52'7 7.3
2016-Feb-06 10:33N 35°20' E 139°44'12 0.6
2016-Feb-05 13:23N 35°08' E 139°43'1011.9
2016-Feb-05 12:34N 35°17' E 139°45'1110.6
2016-Feb-05 11:33N 35°28' E 139°47'10 9.7
2016-Feb-05 10:34N 35°37' E 139°48'0 0.1
2016-Feb-05 09:29N 35°37' E 139°48'0 0.0
2016-Feb-05 08:29N 35°37' E 139°48'0 0.0
2016-Feb-05 07:32N 35°37' E 139°48'0 0.0
2016-Feb-05 06:32N 35°37' E 139°48'0 0.0
2016-Feb-05 05:32N 35°37' E 139°48'0 0.0
2016-Feb-05 04:26N 35°37' E 139°48'0 0.0
2016-Feb-05 03:26N 35°37' E 139°48'0 0.0
2016-Feb-05 02:23N 35°37' E 139°48'0 0.0
2016-Feb-05 01:32N 35°37' E 139°48'0 0.1
2016-Feb-05 00:29N 35°37' E 139°48'0 0.0
2016-Feb-04 23:29N 35°37' E 139°48'0 0.0
2016-Feb-04 22:29N 35°37' E 139°48'0 0.0
2016-Feb-04 21:29N 35°37' E 139°48'0 0.0
2016-Feb-04 20:29N 35°37' E 139°48'0 0.0
2016-Feb-04 19:32N 35°37' E 139°48'0 0.0
2016-Feb-04 18:32N 35°37' E 139°48'0 0.0
2016-Feb-04 17:32N 35°37' E 139°48'0 0.0
2016-Feb-04 16:29N 35°37' E 139°48'0 0.0
2016-Feb-04 15:29N 35°37' E 139°48'0 0.0
2016-Feb-04 14:26N 35°37' E 139°48'0 0.0
2016-Feb-04 13:29N 35°37' E 139°48'0 0.0
2016-Feb-04 12:32N 35°37' E 139°48'0 0.0
2016-Feb-04 11:32N 35°37' E 139°48'0 0.0
2016-Feb-04 10:33N 35°37' E 139°48'6 5.8
2016-Feb-04 09:33N 35°32' E 139°50'1212.0
2016-Feb-04 08:33N 35°21' E 139°45'1110.6
2016-Feb-04 07:33N 35°10' E 139°47'63 6.3
2016-Feb-03 21:33N 35°56' E 140°40'0 0.0
2016-Feb-03 16:20N 35°56' E 140°40'0 0.0
2016-Feb-03 13:32N 35°56' E 140°40'0 0.0
2016-Feb-03 12:14N 35°56' E 140°40'0 0.0
2016-Feb-03 10:26N 35°56' E 140°40'0 0.0
2016-Feb-03 09:32N 35°56' E 140°40'0 0.0
2016-Feb-03 03:14N 35°56' E 140°40'0 0.0
2016-Feb-03 02:32N 35°56' E 140°40'0 0.0
2016-Feb-03 01:32N 35°56' E 140°40'0 0.0
2016-Feb-03 00:20N 35°56' E 140°40'0 0.0
2016-Feb-02 23:32N 35°56' E 140°40'0 0.0
2016-Feb-02 22:32N 35°56' E 140°40'0 0.0
2016-Feb-02 21:26N 35°56' E 140°40'0 0.0
2016-Feb-02 20:32N 35°56' E 140°40'4 4.3
2016-Feb-02 19:33N 35°55' E 140°45'3310.8
2016-Feb-02 16:30N 35°23' E 140°38'3012.5
2016-Feb-02 14:06N 35°02' E 140°12'23 9.1
2016-Feb-02 11:33N 35°01' E 139°44'1313.0
2016-Feb-02 10:34N 35°13' E 139°47'1211.8
2016-Feb-02 09:33N 35°25' E 139°44'7 7.3
2016-Feb-02 08:33N 35°30' E 139°51'5 5.2
2016-Feb-02 07:33N 35°34' E 139°55'7 7.0
2016-Feb-02 06:33N 35°41' E 139°58'0 0.0
2016-Feb-02 05:28N 35°41' E 139°58'0 0.0
2016-Feb-02 04:31N 35°41' E 139°58'0 0.0
2016-Feb-02 03:33N 35°41' E 139°58'0 0.0
2016-Feb-02 02:34N 35°41' E 139°58'0 0.0
2016-Feb-02 01:33N 35°41' E 139°58'0 0.0
2016-Feb-02 00:25N 35°41' E 139°58'0 0.0
2016-Feb-01 23:33N 35°41' E 139°58'0 0.0
2016-Feb-01 22:31N 35°41' E 139°58'0 0.0
2016-Feb-01 21:34N 35°41' E 139°58'0 0.0
2016-Feb-01 20:27N 35°41' E 139°58'0 0.0
2016-Feb-01 19:34N 35°41' E 139°58'0 0.0
2016-Feb-01 18:34N 35°41' E 139°58'0 0.0
2016-Feb-01 17:31N 35°41' E 139°58'0 0.0
2016-Feb-01 16:33N 35°41' E 139°58'0 0.0
2016-Feb-01 15:33N 35°41' E 139°58'0 0.0
2016-Feb-01 14:34N 35°41' E 139°58'0 0.0
2016-Feb-01 13:34N 35°41' E 139°58'0 0.0
2016-Feb-01 12:33N 35°41' E 139°58'0 0.0
2016-Feb-01 11:33N 35°41' E 139°58'0 0.0
2016-Feb-01 10:33N 35°41' E 139°58'0 0.0
2016-Feb-01 09:33N 35°41' E 139°58'0 0.0
2016-Feb-01 08:33N 35°41' E 139°58'0 0.0
2016-Feb-01 07:30N 35°41' E 139°58'0 0.0
2016-Feb-01 06:30N 35°41' E 139°58'0 0.0
2016-Feb-01 05:33N 35°41' E 139°58'0 0.0
2016-Feb-01 04:33N 35°41' E 139°58'2 1.8
2016-Feb-01 03:33N 35°39' E 139°58'1111.3
2016-Feb-01 02:33N 35°29' E 139°52'1111.1
2016-Feb-01 01:33N 35°19' E 139°44'1110.9
2016-Feb-01 00:32N 35°08' E 139°46'244 9.7
2016-Jan-30 23:28N 34°07' E 134°59'1212.4
2016-Jan-30 22:29N 34°19' E 134°59'1212.5
2016-Jan-30 21:33N 34°30' E 135°02'9 9.0
2016-Jan-30 20:33N 34°37' E 134°55'2 0.2
2016-Jan-30 08:33N 34°37' E 134°57'1111.3
2016-Jan-30 07:33N 34°37' E 135°11'6 6.4
2016-Jan-30 06:33N 34°42' E 135°15'0 0.0
2016-Jan-30 05:23N 34°42' E 135°15'0 0.0
2016-Jan-30 04:29N 34°42' E 135°15'0 0.0
2016-Jan-30 03:29N 34°42' E 135°15'0 0.0
2016-Jan-30 02:29N 34°42' E 135°15'0 0.0
2016-Jan-30 01:29N 34°42' E 135°15'0 0.0
2016-Jan-30 00:23N 34°42' E 135°15'0 0.0
2016-Jan-29 23:29N 34°42' E 135°15'1 0.8
2016-Jan-29 22:33N 34°42' E 135°15'6 6.1
2016-Jan-29 21:33N 34°36' E 135°16'1212.2
2016-Jan-29 20:33N 34°37' E 135°01'4 0.3
2016-Jan-29 08:16N 34°36' E 135°05'912.8
2016-Jan-29 07:33N 34°38' E 135°16'5 4.0
2016-Jan-29 06:23N 34°42' E 135°15'0 0.0
2016-Jan-29 05:29N 34°42' E 135°15'0 0.0
2016-Jan-29 04:29N 34°42' E 135°15'0 0.0
2016-Jan-29 03:29N 34°42' E 135°15'0 0.0
2016-Jan-29 02:29N 34°42' E 135°15'0 0.0
2016-Jan-29 01:29N 34°42' E 135°15'0 0.0
2016-Jan-29 00:29N 34°42' E 135°15'0 0.0
2016-Jan-28 23:23N 34°42' E 135°15'2 3.0
2016-Jan-28 22:33N 34°40' E 135°15'  
Track history (hours):
 
Tides and Currents Weather Stations Pressure Air Temp Water Temp Dewpoint Dewpoint Depression Visibility Wind Speed Wind Dir Waves Ship Positions

Teruhou Maru No.22

Last reported at 2016-Feb-07 22:26 UTC. Time now 2016-Feb-11 19:06 UTC.
Position N 35°10' E 139°44'.

Length 76 m; draft 5 m.

Type: Cargo ship. MMSI: 431002552.

Date/timePositionNaut miles runAvg speedWind from/ knotsBaromVisibWave heightAir tempDewpointWater temp
2016-Feb-07 22:26N 35°10' E 139°44'1011.3
2016-Feb-07 21:33N 35°20' E 139°43'7 7.5
2016-Feb-07 20:33N 35°23' E 139°51'2 2.2
2016-Feb-07 19:33N 35°22' E 139°54'0 0.0
2016-Feb-07 18:33N 35°22' E 139°54'0 0.0
2016-Feb-07 17:27N 35°22' E 139°54'0 0.0
2016-Feb-07 16:33N 35°22' E 139°54'0 0.0
2016-Feb-07 15:33N 35°22' E 139°54'0 0.0
2016-Feb-07 14:30N 35°22' E 139°54'0 0.0
2016-Feb-07 13:33N 35°22' E 139°54'0 0.0
2016-Feb-07 12:33N 35°22' E 139°54'0 0.0
2016-Feb-07 11:33N 35°22' E 139°54'0 0.0
2016-Feb-07 10:33N 35°22' E 139°54'0 0.0
2016-Feb-07 09:33N 35°22' E 139°54'0 0.0
2016-Feb-07 08:33N 35°22' E 139°54'0 0.0
2016-Feb-07 07:33N 35°22' E 139°54'0 0.0
2016-Feb-07 06:33N 35°22' E 139°54'0 0.0
2016-Feb-07 05:33N 35°22' E 139°54'0 0.0
2016-Feb-07 04:27N 35°22' E 139°54'0 0.0
2016-Feb-07 03:33N 35°22' E 139°54'0 0.0
2016-Feb-07 02:33N 35°22' E 139°54'1 1.2
2016-Feb-07 01:29N 35°22' E 139°52'0 0.0
2016-Feb-07 00:23N 35°22' E 139°52'0 0.0
2016-Feb-06 23:32N 35°22' E 139°52'0 0.0
2016-Feb-06 22:32N 35°22' E 139°52'0 0.0
2016-Feb-06 21:32N 35°22' E 139°52'0 0.0
2016-Feb-06 20:26N 35°22' E 139°52'0 0.0
2016-Feb-06 19:29N 35°22' E 139°52'0 0.0
2016-Feb-06 18:29N 35°22' E 139°52'0 0.0
2016-Feb-06 17:32N 35°22' E 139°52'0 0.0
2016-Feb-06 16:32N 35°22' E 139°52'0 0.0
2016-Feb-06 15:29N 35°22' E 139°52'0 0.1
2016-Feb-06 14:32N 35°22' E 139°52'0 0.0
2016-Feb-06 13:32N 35°22' E 139°52'0 0.0
2016-Feb-06 12:32N 35°22' E 139°52'0 0.0
2016-Feb-06 11:30N 35°22' E 139°52'7 7.3
2016-Feb-06 10:33N 35°20' E 139°44'12 0.6
2016-Feb-05 13:23N 35°08' E 139°43'1011.9
2016-Feb-05 12:34N 35°17' E 139°45'1110.6
2016-Feb-05 11:33N 35°28' E 139°47'10 9.7
2016-Feb-05 10:34N 35°37' E 139°48'0 0.1
2016-Feb-05 09:29N 35°37' E 139°48'0 0.0
2016-Feb-05 08:29N 35°37' E 139°48'0 0.0
2016-Feb-05 07:32N 35°37' E 139°48'0 0.0
2016-Feb-05 06:32N 35°37' E 139°48'0 0.0
2016-Feb-05 05:32N 35°37' E 139°48'0 0.0
2016-Feb-05 04:26N 35°37' E 139°48'0 0.0
2016-Feb-05 03:26N 35°37' E 139°48'0 0.0
2016-Feb-05 02:23N 35°37' E 139°48'0 0.0
2016-Feb-05 01:32N 35°37' E 139°48'0 0.1
2016-Feb-05 00:29N 35°37' E 139°48'0 0.0
2016-Feb-04 23:29N 35°37' E 139°48'0 0.0
2016-Feb-04 22:29N 35°37' E 139°48'0 0.0
2016-Feb-04 21:29N 35°37' E 139°48'0 0.0
2016-Feb-04 20:29N 35°37' E 139°48'0 0.0
2016-Feb-04 19:32N 35°37' E 139°48'0 0.0
2016-Feb-04 18:32N 35°37' E 139°48'0 0.0
2016-Feb-04 17:32N 35°37' E 139°48'0 0.0
2016-Feb-04 16:29N 35°37' E 139°48'0 0.0
2016-Feb-04 15:29N 35°37' E 139°48'0 0.0
2016-Feb-04 14:26N 35°37' E 139°48'0 0.0
2016-Feb-04 13:29N 35°37' E 139°48'0 0.0
2016-Feb-04 12:32N 35°37' E 139°48'0 0.0
2016-Feb-04 11:32N 35°37' E 139°48'0 0.0
2016-Feb-04 10:33N 35°37' E 139°48'6 5.8
2016-Feb-04 09:33N 35°32' E 139°50'1212.0
2016-Feb-04 08:33N 35°21' E 139°45'1110.6
2016-Feb-04 07:33N 35°10' E 139°47'63 6.3
2016-Feb-03 21:33N 35°56' E 140°40'0 0.0
2016-Feb-03 16:20N 35°56' E 140°40'0 0.0
2016-Feb-03 13:32N 35°56' E 140°40'0 0.0
2016-Feb-03 12:14N 35°56' E 140°40'0 0.0
2016-Feb-03 10:26N 35°56' E 140°40'0 0.0
2016-Feb-03 09:32N 35°56' E 140°40'0 0.0
2016-Feb-03 03:14N 35°56' E 140°40'0 0.0
2016-Feb-03 02:32N 35°56' E 140°40'0 0.0
2016-Feb-03 01:32N 35°56' E 140°40'0 0.0
2016-Feb-03 00:20N 35°56' E 140°40'0 0.0
2016-Feb-02 23:32N 35°56' E 140°40'0 0.0
2016-Feb-02 22:32N 35°56' E 140°40'0 0.0
2016-Feb-02 21:26N 35°56' E 140°40'0 0.0
2016-Feb-02 20:32N 35°56' E 140°40'4 4.3
2016-Feb-02 19:33N 35°55' E 140°45'3310.8
2016-Feb-02 16:30N 35°23' E 140°38'3012.5
2016-Feb-02 14:06N 35°02' E 140°12'23 9.1
2016-Feb-02 11:33N 35°01' E 139°44'1313.0
2016-Feb-02 10:34N 35°13' E 139°47'1211.8
2016-Feb-02 09:33N 35°25' E 139°44'7 7.3
2016-Feb-02 08:33N 35°30' E 139°51'5 5.2
2016-Feb-02 07:33N 35°34' E 139°55'7 7.0
2016-Feb-02 06:33N 35°41' E 139°58'0 0.0
2016-Feb-02 05:28N 35°41' E 139°58'0 0.0
2016-Feb-02 04:31N 35°41' E 139°58'0 0.0
2016-Feb-02 03:33N 35°41' E 139°58'0 0.0
2016-Feb-02 02:34N 35°41' E 139°58'0 0.0
2016-Feb-02 01:33N 35°41' E 139°58'0 0.0
2016-Feb-02 00:25N 35°41' E 139°58'0 0.0
2016-Feb-01 23:33N 35°41' E 139°58'0 0.0
2016-Feb-01 22:31N 35°41' E 139°58'0 0.0
2016-Feb-01 21:34N 35°41' E 139°58'0 0.0
2016-Feb-01 20:27N 35°41' E 139°58'0 0.0
2016-Feb-01 19:34N 35°41' E 139°58'0 0.0
2016-Feb-01 18:34N 35°41' E 139°58'0 0.0
2016-Feb-01 17:31N 35°41' E 139°58'0 0.0
2016-Feb-01 16:33N 35°41' E 139°58'0 0.0
2016-Feb-01 15:33N 35°41' E 139°58'0 0.0
2016-Feb-01 14:34N 35°41' E 139°58'0 0.0
2016-Feb-01 13:34N 35°41' E 139°58'0 0.0
2016-Feb-01 12:33N 35°41' E 139°58'0 0.0
2016-Feb-01 11:33N 35°41' E 139°58'0 0.0
2016-Feb-01 10:33N 35°41' E 139°58'0 0.0
2016-Feb-01 09:33N 35°41' E 139°58'0 0.0
2016-Feb-01 08:33N 35°41' E 139°58'0 0.0
2016-Feb-01 07:30N 35°41' E 139°58'0 0.0
2016-Feb-01 06:30N 35°41' E 139°58'0 0.0
2016-Feb-01 05:33N 35°41' E 139°58'0 0.0
2016-Feb-01 04:33N 35°41' E 139°58'2 1.8
2016-Feb-01 03:33N 35°39' E 139°58'1111.3
2016-Feb-01 02:33N 35°29' E 139°52'1111.1
2016-Feb-01 01:33N 35°19' E 139°44'1110.9
2016-Feb-01 00:32N 35°08' E 139°46'244 9.7
2016-Jan-30 23:28N 34°07' E 134°59'1212.4
2016-Jan-30 22:29N 34°19' E 134°59'1212.5
2016-Jan-30 21:33N 34°30' E 135°02'9 9.0
2016-Jan-30 20:33N 34°37' E 134°55'2 0.2
2016-Jan-30 08:33N 34°37' E 134°57'1111.3
2016-Jan-30 07:33N 34°37' E 135°11'6 6.4
2016-Jan-30 06:33N 34°42' E 135°15'0 0.0
2016-Jan-30 05:23N 34°42' E 135°15'0 0.0
2016-Jan-30 04:29N 34°42' E 135°15'0 0.0
2016-Jan-30 03:29N 34°42' E 135°15'0 0.0
2016-Jan-30 02:29N 34°42' E 135°15'0 0.0
2016-Jan-30 01:29N 34°42' E 135°15'0 0.0
2016-Jan-30 00:23N 34°42' E 135°15'0 0.0
2016-Jan-29 23:29N 34°42' E 135°15'1 0.8
2016-Jan-29 22:33N 34°42' E 135°15'6 6.1
2016-Jan-29 21:33N 34°36' E 135°16'1212.2
2016-Jan-29 20:33N 34°37' E 135°01'4 0.3
2016-Jan-29 08:16N 34°36' E 135°05'912.8
2016-Jan-29 07:33N 34°38' E 135°16'5 4.0
2016-Jan-29 06:23N 34°42' E 135°15'0 0.0
2016-Jan-29 05:29N 34°42' E 135°15'0 0.0
2016-Jan-29 04:29N 34°42' E 135°15'0 0.0
2016-Jan-29 03:29N 34°42' E 135°15'0 0.0
2016-Jan-29 02:29N 34°42' E 135°15'0 0.0
2016-Jan-29 01:29N 34°42' E 135°15'0 0.0
2016-Jan-29 00:29N 34°42' E 135°15'0 0.0
2016-Jan-28 23:23N 34°42' E 135°15'2 3.0
2016-Jan-28 22:33N 34°40' E 135°15'  

Dump ship's entire track history